In Rescue
 
Open Full Screen Window  High Contrast Mode
Wind Gusting 18 knots
10
May 25, 2022 8:11 PM CDT
Present Weather: Mist
Weather Information
Wind Direction
  070 °
Wind Speed
  10 kt (12 mph)
Wind Gust
  18 kt (21 mph)
Altimeter
29.92 in
Visibility
5 SM
Temperature
07° C
45° F
Dewpoint
06° C
43° F
Humidity
93%
1hr Rain Fall
00.00 in.
24hr Rain Fall
00.13 in.
Sky Condition
Missing
MVFR

METAR KCOQ 260111Z AUTO 07010G18KT 5SM BR 07/06 A2992 RMK AO2 TSNO

FAA Disclaimer: The data displayed is for advisory purposes only and is not to be used for flight planning or operations.
Missing Cloud Data